Time;durP1;ratioP1;P1;durP2;ratioP2;P2;SDS_P1;SDS_P2;PMS_P1;PMS_P2;Temp;Humidity;BMP_temperature;BMP_pressure;BME280_temperature;BME280_humidity;BME280_pressure;Samples;Min_cycle;Max_cycle;Signal;HPM_P1;HPM_P2
2023/05/11 00:01:36;;;;;;;9.13;5.35;;;;;;;;;;4955851;29;20078;-91
2023/05/11 00:04:02;;;;;;;8.35;4.53;;;;;;;;;;4956545;29;20035;-91
2023/05/11 00:06:28;;;;;;;8.00;5.13;;;;;;;;;;4955936;29;20038;-92
2023/05/11 00:08:55;;;;;;;6.20;4.70;;;;;;;;;;4955196;28;20050;-91
2023/05/11 00:11:22;;;;;;;5.57;4.50;;;;;;;;;;4956309;29;20466;-92
2023/05/11 00:13:48;;;;;;;8.80;4.40;;;;;;;;;;4955773;29;20050;-92
2023/05/11 00:16:15;;;;;;;6.63;4.72;;;;;;;;;;4957080;29;20484;-92
2023/05/11 00:18:41;;;;;;;7.13;4.72;;;;;;;;;;4955839;29;20118;-93
2023/05/11 00:21:08;;;;;;;5.85;4.40;;;;;;;;;;4955548;29;20035;-92
2023/05/11 00:23:34;;;;;;;6.55;4.22;;;;;;;;;;4955765;29;20094;-92
2023/05/11 00:26:00;;;;;;;5.43;4.30;;;;;;;;;;4955862;29;20043;-92
2023/05/11 00:28:26;;;;;;;6.85;4.10;;;;;;;;;;4955630;29;20118;-92
2023/05/11 00:30:56;;;;;;;6.10;4.25;;;;;;;;;;4955299;28;20047;-93
2023/05/11 00:33:22;;;;;;;9.15;4.40;;;;;;;;;;4955354;29;20043;-92
2023/05/11 00:35:48;;;;;;;6.72;4.05;;;;;;;;;;4955710;29;20058;-92
2023/05/11 00:38:15;;;;;;;5.88;4.38;;;;;;;;;;4955339;29;20034;-92
2023/05/11 00:40:41;;;;;;;6.60;3.85;;;;;;;;;;4955616;29;20035;-93
2023/05/11 00:43:07;;;;;;;6.20;4.65;;;;;;;;;;4955294;29;20023;-93
2023/05/11 00:45:35;;;;;;;6.45;4.65;;;;;;;;;;4955526;29;20038;-93
2023/05/11 00:48:01;;;;;;;8.68;5.15;;;;;;;;;;4955342;29;20027;-93
2023/05/11 00:50:27;;;;;;;8.70;5.05;;;;;;;;;;4955977;29;20027;-91
2023/05/11 00:52:55;;;;;;;7.40;4.63;;;;;;;;;;4954939;29;20490;-93
2023/05/11 00:55:21;;;;;;;7.55;4.68;;;;;;;;;;4955030;29;20027;-93
2023/05/11 00:57:48;;;;;;;6.47;4.85;;;;;;;;;;4955491;29;20027;-91
2023/05/11 01:00:14;;;;;;;7.32;4.90;;;;;;;;;;4955046;29;20055;-93
2023/05/11 01:02:40;;;;;;;5.53;4.60;;;;;;;;;;4955669;29;20027;-94
2023/05/11 01:05:07;;;;;;;8.25;4.93;;;;;;;;;;4955240;29;20122;-94
2023/05/11 01:07:34;;;;;;;6.50;4.95;;;;;;;;;;4955126;29;20054;-93
2023/05/11 01:10:09;;;;;;;7.50;4.80;;;;;;;;;;4955289;29;20063;-92
2023/05/11 01:12:58;;;;;;;8.65;4.97;;;;;;;;;;4954912;29;20038;-94
2023/05/11 01:15:28;;;;;;;7.00;4.80;;;;;;;;;;4954677;29;20074;-92
2023/05/11 01:18:13;;;;;;;6.35;4.65;;;;;;;;;;4954916;29;20039;-92
2023/05/11 01:20:43;;;;;;;6.07;4.80;;;;;;;;;;4953806;29;20543;-92
2023/05/11 01:23:17;;;;;;;6.25;4.97;;;;;;;;;;4954936;29;20024;-95
2023/05/11 01:26:01;;;;;;;7.00;5.25;;;;;;;;;;4954812;29;20031;-94
2023/05/11 01:28:36;;;;;;;6.70;5.30;;;;;;;;;;4955123;29;20073;-92
2023/05/11 01:31:10;;;;;;;8.63;5.15;;;;;;;;;;4954046;28;20079;-94
2023/05/11 01:33:37;;;;;;;7.30;4.72;;;;;;;;;;4954559;29;20090;-93
2023/05/11 01:36:06;;;;;;;8.77;4.57;;;;;;;;;;4954412;29;20035;-95
2023/05/11 01:38:34;;;;;;;6.75;4.30;;;;;;;;;;4954971;29;20095;-95
2023/05/11 01:41:01;;;;;;;6.68;4.03;;;;;;;;;;4954619;29;20070;-94
2023/05/11 01:43:28;;;;;;;7.22;4.25;;;;;;;;;;4954663;29;20028;-95
2023/05/11 01:45:58;;;;;;;5.97;4.18;;;;;;;;;;4954792;29;20039;-92
2023/05/11 01:48:27;;;;;;;4.85;3.90;;;;;;;;;;4955354;29;20071;-95
2023/05/11 01:50:56;;;;;;;7.22;4.82;;;;;;;;;;4955512;29;20116;-91
2023/05/11 01:53:23;;;;;;;6.65;4.72;;;;;;;;;;4954599;29;20031;-94
2023/05/11 01:55:51;;;;;;;8.10;4.45;;;;;;;;;;4954385;29;20063;-95
2023/05/11 01:58:17;;;;;;;8.93;4.85;;;;;;;;;;4954866;29;20540;-92
2023/05/11 02:00:44;;;;;;;7.10;4.53;;;;;;;;;;4954545;29;20507;-92
2023/05/11 02:03:11;;;;;;;6.80;4.35;;;;;;;;;;4954712;29;20488;-93
2023/05/11 02:05:38;;;;;;;6.95;4.90;;;;;;;;;;4954572;29;20039;-92
2023/05/11 02:08:05;;;;;;;7.97;4.68;;;;;;;;;;4954447;29;20031;-94
2023/05/11 02:10:32;;;;;;;7.93;4.93;;;;;;;;;;4954610;29;20034;-92
2023/05/11 02:12:59;;;;;;;10.02;5.07;;;;;;;;;;4954198;29;20539;-95
2023/05/11 02:15:26;;;;;;;7.82;5.10;;;;;;;;;;4954124;29;20118;-92
2023/05/11 02:17:53;;;;;;;6.50;4.57;;;;;;;;;;4954052;29;20031;-91
2023/05/11 02:20:19;;;;;;;7.30;5.28;;;;;;;;;;4954369;29;20508;-91
2023/05/11 02:22:46;;;;;;;8.60;5.15;;;;;;;;;;4954238;29;20031;-94
2023/05/11 02:25:13;;;;;;;8.88;5.20;;;;;;;;;;4954092;29;20504;-91
2023/05/11 02:27:39;;;;;;;8.55;5.20;;;;;;;;;;4954242;29;20030;-92
2023/05/11 02:30:07;;;;;;;6.88;4.97;;;;;;;;;;4953840;29;20051;-91
2023/05/11 02:32:35;;;;;;;6.90;5.00;;;;;;;;;;4957289;29;20020;-90
2023/05/11 02:35:05;;;;;;;9.93;5.53;;;;;;;;;;4957649;29;20098;-92
2023/05/11 02:37:33;;;;;;;9.30;4.60;;;;;;;;;;4957452;29;20118;-92
2023/05/11 02:40:02;;;;;;;6.88;4.70;;;;;;;;;;4957454;29;20039;-93
2023/05/11 02:42:30;;;;;;;7.43;4.85;;;;;;;;;;4957671;29;20476;-93
2023/05/11 02:45:07;;;;;;;6.60;4.63;;;;;;;;;;4957491;29;20024;-91
2023/05/11 02:47:36;;;;;;;6.47;4.97;;;;;;;;;;4957470;29;20476;-92
2023/05/11 02:50:03;;;;;;;10.52;5.20;;;;;;;;;;4958978;29;20603;-92
2023/05/11 02:52:31;;;;;;;7.85;5.03;;;;;;;;;;4959132;29;20495;-93
2023/05/11 02:54:58;;;;;;;7.13;4.68;;;;;;;;;;4958368;29;20491;-90
2023/05/11 02:57:25;;;;;;;5.97;4.45;;;;;;;;;;4957036;29;20074;-92
2023/05/11 02:59:51;;;;;;;5.57;4.07;;;;;;;;;;4957513;29;20039;-91
2023/05/11 03:02:18;;;;;;;7.03;4.82;;;;;;;;;;4957474;29;20023;-92
2023/05/11 03:04:44;;;;;;;7.38;4.90;;;;;;;;;;4957374;29;20031;-91
2023/05/11 03:07:10;;;;;;;7.63;4.72;;;;;;;;;;4956974;29;20023;-92
2023/05/11 03:09:36;;;;;;;7.13;5.15;;;;;;;;;;4956992;29;20170;-91
2023/05/11 03:12:03;;;;;;;9.50;4.70;;;;;;;;;;4956876;29;20039;-92
2023/05/11 03:14:32;;;;;;;7.13;4.70;;;;;;;;;;4956824;29;20027;-93
2023/05/11 03:16:59;;;;;;;8.18;5.28;;;;;;;;;;4956821;29;20035;-92
2023/05/11 03:19:27;;;;;;;11.95;4.70;;;;;;;;;;4957786;29;20043;-91
2023/05/11 03:21:54;;;;;;;7.53;4.95;;;;;;;;;;4956813;29;20478;-92
2023/05/11 03:24:20;;;;;;;9.20;4.90;;;;;;;;;;4957966;29;20484;-90
2023/05/11 03:26:47;;;;;;;9.68;5.10;;;;;;;;;;4957009;29;20023;-92
2023/05/11 03:29:14;;;;;;;8.52;4.90;;;;;;;;;;4957145;29;20027;-92
2023/05/11 03:31:41;;;;;;;8.68;5.05;;;;;;;;;;4941878;29;20375;-92
2023/05/11 03:34:07;;;;;;;7.68;5.10;;;;;;;;;;4940972;29;20027;-92
2023/05/11 03:36:35;;;;;;;9.57;5.35;;;;;;;;;;4940939;29;20035;-92
2023/05/11 03:39:01;;;;;;;6.57;4.78;;;;;;;;;;4940904;29;20023;-92
2023/05/11 03:41:30;;;;;;;7.57;4.68;;;;;;;;;;4940243;29;20027;-91
2023/05/11 03:43:58;;;;;;;7.18;5.00;;;;;;;;;;4939710;29;20024;-90
2023/05/11 03:46:25;;;;;;;13.90;5.43;;;;;;;;;;4940525;29;20063;-91
2023/05/11 03:48:52;;;;;;;10.25;5.15;;;;;;;;;;4958284;29;20134;-91
2023/05/11 03:51:19;;;;;;;10.82;5.00;;;;;;;;;;4940218;29;20054;-92
2023/05/11 03:53:46;;;;;;;9.38;4.82;;;;;;;;;;4942742;29;20090;-91
2023/05/11 03:56:12;;;;;;;8.15;4.93;;;;;;;;;;4940598;29;20031;-90
2023/05/11 03:58:39;;;;;;;6.43;4.40;;;;;;;;;;4940131;29;20027;-93
2023/05/11 04:01:07;;;;;;;9.30;4.90;;;;;;;;;;4940367;29;20039;-90
2023/05/11 04:03:33;;;;;;;7.30;4.45;;;;;;;;;;4939734;29;20111;-90
2023/05/11 04:05:59;;;;;;;8.70;4.70;;;;;;;;;;4939901;29;20032;-92
2023/05/11 04:08:25;;;;;;;6.55;4.68;;;;;;;;;;4941030;29;20451;-93
2023/05/11 04:10:51;;;;;;;6.07;4.50;;;;;;;;;;4940232;29;20035;-91
2023/05/11 04:13:17;;;;;;;7.60;5.13;;;;;;;;;;4939988;29;20531;-90
2023/05/11 04:15:43;;;;;;;9.25;4.80;;;;;;;;;;4939475;29;20118;-90
2023/05/11 04:18:10;;;;;;;6.60;4.65;;;;;;;;;;4940047;29;20028;-90
2023/05/11 04:20:36;;;;;;;10.60;4.47;;;;;;;;;;4939861;29;20035;-90
2023/05/11 04:23:02;;;;;;;6.60;4.03;;;;;;;;;;4939637;29;20452;-89
2023/05/11 04:25:28;;;;;;;5.95;3.60;;;;;;;;;;4940042;29;20074;-90
2023/05/11 04:27:55;;;;;;;5.65;3.83;;;;;;;;;;4932942;29;20035;-90
2023/05/11 04:30:21;;;;;;;6.28;3.80;;;;;;;;;;4931098;29;20052;-89
2023/05/11 04:32:47;;;;;;;4.78;3.40;;;;;;;;;;4925921;29;20056;-89
2023/05/11 04:35:13;;;;;;;4.75;3.42;;;;;;;;;;4933467;29;20451;-89
2023/05/11 04:37:39;;;;;;;5.07;3.20;;;;;;;;;;4936435;29;20024;-89
2023/05/11 04:40:06;;;;;;;6.80;3.65;;;;;;;;;;4936308;29;20040;-89
2023/05/11 04:42:32;;;;;;;6.00;4.07;;;;;;;;;;4936144;29;20023;-89
2023/05/11 04:44:58;;;;;;;12.05;4.03;;;;;;;;;;4936281;29;20485;-89
2023/05/11 04:47:24;;;;;;;6.93;4.07;;;;;;;;;;4924082;29;20078;-89
2023/05/11 04:49:50;;;;;;;5.50;3.45;;;;;;;;;;4917111;29;20032;-89
2023/05/11 04:52:16;;;;;;;6.63;3.90;;;;;;;;;;4916855;29;20059;-89
2023/05/11 04:54:42;;;;;;;6.10;3.70;;;;;;;;;;4916586;29;20032;-89
2023/05/11 04:57:09;;;;;;;10.35;3.85;;;;;;;;;;4917435;29;20031;-89
2023/05/11 04:59:35;;;;;;;6.00;3.80;;;;;;;;;;4916506;29;20036;-92
2023/05/11 05:02:01;;;;;;;5.15;3.53;;;;;;;;;;4917109;29;20036;-90
2023/05/11 05:04:27;;;;;;;5.45;3.67;;;;;;;;;;4917562;29;20032;-91
2023/05/11 05:06:53;;;;;;;6.07;3.97;;;;;;;;;;4917568;29;20028;-90
2023/05/11 05:09:19;;;;;;;8.60;3.88;;;;;;;;;;4917019;29;20028;-90
2023/05/11 05:11:46;;;;;;;5.25;3.60;;;;;;;;;;4916980;29;20482;-93
2023/05/11 05:14:12;;;;;;;7.65;3.97;;;;;;;;;;4916472;29;20043;-90
2023/05/11 05:16:38;;;;;;;5.75;3.60;;;;;;;;;;4917489;29;20032;-90
2023/05/11 05:19:04;;;;;;;9.00;3.47;;;;;;;;;;4916414;29;20478;-89
2023/05/11 05:21:31;;;;;;;5.07;3.67;;;;;;;;;;4916579;29;20028;-91
2023/05/11 05:24:05;;;;;;;9.93;3.33;;;;;;;;;;4917507;29;20406;-95
2023/05/11 05:26:31;;;;;;;5.47;2.90;;;;;;;;;;4917392;29;20120;-89
2023/05/11 05:28:57;;;;;;;4.03;2.97;;;;;;;;;;4916481;29;20122;-90
2023/05/11 05:31:33;;;;;;;5.85;3.50;;;;;;;;;;4918772;29;20055;-93
2023/05/11 05:33:59;;;;;;;7.43;3.33;;;;;;;;;;4917956;29;20064;-93
2023/05/11 05:36:26;;;;;;;4.18;2.88;;;;;;;;;;4917201;29;20066;-90
2023/05/11 05:38:52;;;;;;;5.03;2.72;;;;;;;;;;4916834;29;20068;-90
2023/05/11 05:41:18;;;;;;;7.50;3.65;;;;;;;;;;4917233;29;20059;-92
2023/05/11 05:43:44;;;;;;;3.42;2.80;;;;;;;;;;4919111;29;20039;-91
2023/05/11 05:46:10;;;;;;;4.00;2.80;;;;;;;;;;4916832;29;20032;-91
2023/05/11 05:48:36;;;;;;;4.28;3.30;;;;;;;;;;4916499;29;20035;-91
2023/05/11 05:51:02;;;;;;;5.65;3.17;;;;;;;;;;4916842;29;20074;-91
2023/05/11 05:53:28;;;;;;;4.63;3.17;;;;;;;;;;4916869;29;20128;-90
2023/05/11 05:55:55;;;;;;;4.22;3.08;;;;;;;;;;4917456;29;20080;-89
2023/05/11 05:58:21;;;;;;;10.10;3.38;;;;;;;;;;4916450;29;20032;-90
2023/05/11 06:00:48;;;;;;;6.78;3.80;;;;;;;;;;4916272;29;20063;-89
2023/05/11 06:03:14;;;;;;;6.75;3.88;;;;;;;;;;4916620;29;20028;-91
2023/05/11 06:05:40;;;;;;;5.70;3.42;;;;;;;;;;4916012;29;20039;-89
2023/05/11 06:08:06;;;;;;;4.32;3.30;;;;;;;;;;4921364;29;20462;-88
2023/05/11 06:10:32;;;;;;;6.35;4.03;;;;;;;;;;4920289;29;20123;-89
2023/05/11 06:12:58;;;;;;;6.40;4.18;;;;;;;;;;4919770;29;20031;-88
2023/05/11 06:15:24;;;;;;;6.90;3.80;;;;;;;;;;4919514;29;20039;-88
2023/05/11 06:17:50;;;;;;;5.32;3.65;;;;;;;;;;4920356;29;20063;-90
2023/05/11 06:20:17;;;;;;;4.68;3.03;;;;;;;;;;4920151;29;20107;-90
2023/05/11 06:22:43;;;;;;;5.00;3.33;;;;;;;;;;4920874;29;20028;-90
2023/05/11 06:25:09;;;;;;;5.80;3.20;;;;;;;;;;4919920;29;20032;-90
2023/05/11 06:27:35;;;;;;;6.88;3.15;;;;;;;;;;4919504;29;20105;-90
2023/05/11 06:30:05;;;;;;;6.85;3.38;;;;;;;;;;4922815;29;20056;-89
2023/05/11 06:32:33;;;;;;;4.65;3.13;;;;;;;;;;4923260;29;20020;-90
2023/05/11 06:35:00;;;;;;;5.88;3.78;;;;;;;;;;4923064;29;20118;-91
2023/05/11 06:37:28;;;;;;;5.80;3.90;;;;;;;;;;4922596;29;20481;-92
2023/05/11 06:39:55;;;;;;;6.95;3.35;;;;;;;;;;4923119;29;20130;-90
2023/05/11 06:42:24;;;;;;;4.63;3.03;;;;;;;;;;4922450;29;20132;-91
2023/05/11 06:44:50;;;;;;;3.78;2.70;;;;;;;;;;4922109;29;20039;-91
2023/05/11 06:47:16;;;;;;;4.32;3.25;;;;;;;;;;4927292;29;20507;-89
2023/05/11 06:49:42;;;;;;;5.95;3.05;;;;;;;;;;4942724;29;20063;-91
2023/05/11 06:52:09;;;;;;;4.47;2.70;;;;;;;;;;4923769;29;20035;-90
2023/05/11 06:54:35;;;;;;;4.95;2.80;;;;;;;;;;4925350;29;20476;-91
2023/05/11 06:57:05;;;;;;;7.93;2.25;;;;;;;;;;4922319;29;20455;-90
2023/05/11 06:59:34;;;;;;;4.65;2.28;;;;;;;;;;4923014;29;20106;-91
2023/05/11 07:02:06;;;;;;;4.30;2.40;;;;;;;;;;4922117;29;20031;-89
2023/05/11 07:04:32;;;;;;;5.05;2.00;;;;;;;;;;4921909;29;20035;-89
2023/05/11 07:06:58;;;;;;;5.50;2.38;;;;;;;;;;4922083;29;20390;-90
2023/05/11 07:09:25;;;;;;;3.63;2.10;;;;;;;;;;4922232;29;20071;-89
2023/05/11 07:11:51;;;;;;;3.50;2.30;;;;;;;;;;4934210;29;20059;-92
2023/05/11 07:14:18;;;;;;;4.30;2.28;;;;;;;;;;4922651;29;20087;-91
2023/05/11 07:16:46;;;;;;;4.05;1.95;;;;;;;;;;4922016;29;20034;-91
2023/05/11 07:19:13;;;;;;;6.72;2.80;;;;;;;;;;4921705;29;20031;-88
2023/05/11 07:21:39;;;;;;;3.33;2.30;;;;;;;;;;4922119;29;20062;-89
2023/05/11 07:24:05;;;;;;;5.32;2.20;;;;;;;;;;4921989;29;20119;-90
2023/05/11 07:26:32;;;;;;;3.45;2.25;;;;;;;;;;4922747;29;20182;-92
2023/05/11 07:28:58;;;;;;;3.83;2.00;;;;;;;;;;4921314;29;20028;-91
2023/05/11 07:31:24;;;;;;;5.10;2.40;;;;;;;;;;4921781;29;20071;-92
2023/05/11 07:33:50;;;;;;;5.03;2.10;;;;;;;;;;4921801;29;20035;-91
2023/05/11 07:36:17;;;;;;;3.92;2.10;;;;;;;;;;4938261;29;20024;-92
2023/05/11 07:38:43;;;;;;;5.07;2.20;;;;;;;;;;4921414;29;20493;-91
2023/05/11 07:41:09;;;;;;;3.35;2.25;;;;;;;;;;4921652;29;20040;-89
2023/05/11 07:43:35;;;;;;;3.63;1.95;;;;;;;;;;4933891;29;20081;-91
2023/05/11 07:46:01;;;;;;;6.32;2.40;;;;;;;;;;4921416;29;20031;-91
2023/05/11 08:01:46;;;;;;;3.25;2.58;;;;;;;;;;5485354;23;20030;-93
2023/05/11 08:04:12;;;;;;;4.40;2.50;;;;;;;;;;5143320;23;20031;-95
2023/05/11 08:06:38;;;;;;;6.65;2.70;;;;;;;;;;5033739;23;20419;-96
2023/05/11 08:11:43;;;;;;;6.45;2.70;;;;;;;;;;5109467;23;20046;-93
2023/05/11 08:14:10;;;;;;;5.80;2.70;;;;;;;;;;5000003;23;20035;-95
2023/05/11 09:43:37;;;;;;;6.78;1.85;;;;;;;;;;4945083;29;20050;-92
2023/05/11 09:58:16;;;;;;;5.50;2.00;;;;;;;;;;4883041;29;20108;-96
2023/05/11 10:03:54;;;;;;;6.70;1.88;;;;;;;;;;4846447;29;20042;-96
2023/05/11 10:06:39;;;;;;;4.13;1.95;;;;;;;;;;4842067;29;20066;-93
2023/05/11 10:09:16;;;;;;;4.63;1.80;;;;;;;;;;4830181;29;20037;-87
2023/05/11 10:11:46;;;;;;;2.58;1.73;;;;;;;;;;4858252;29;20046;-91
2023/05/11 10:14:16;;;;;;;5.68;1.65;;;;;;;;;;4943851;29;20007;-95
2023/05/11 10:16:48;;;;;;;2.55;1.90;;;;;;;;;;4943610;28;20062;-89
2023/05/11 10:19:18;;;;;;;4.45;1.98;;;;;;;;;;4940115;29;20491;-91
2023/05/11 10:21:45;;;;;;;3.40;1.67;;;;;;;;;;4949879;28;20475;-89
2023/05/11 10:24:17;;;;;;;4.15;1.80;;;;;;;;;;4961408;28;20490;-89
2023/05/11 10:26:52;;;;;;;6.32;2.00;;;;;;;;;;4963220;28;20035;-91
2023/05/11 10:29:18;;;;;;;4.25;1.90;;;;;;;;;;4962335;28;20471;-89
2023/05/11 10:31:50;;;;;;;5.10;1.95;;;;;;;;;;4961363;28;20464;-90
2023/05/11 10:34:34;;;;;;;5.55;1.67;;;;;;;;;;4959926;29;20027;-94
2023/05/11 10:37:01;;;;;;;3.13;1.85;;;;;;;;;;4946270;29;20039;-92
2023/05/11 10:39:31;;;;;;;4.57;1.90;;;;;;;;;;4952065;29;20039;-91
2023/05/11 11:00:55;;;;;;;3.25;1.80;;;;;;;;;;5831016;23;20400;-95
2023/05/11 11:03:21;;;;;;;2.83;1.80;;;;;;;;;;4926747;29;20039;-92
2023/05/11 11:05:48;;;;;;;5.30;1.90;;;;;;;;;;4927111;29;20028;-94
2023/05/11 11:08:43;;;;;;;4.25;2.03;;;;;;;;;;4930095;29;20042;-96
2023/05/11 11:11:44;;;;;;;3.92;2.03;;;;;;;;;;4851352;29;20041;-92
2023/05/11 11:17:08;;;;;;;7.10;1.73;;;;;;;;;;5131693;23;20504;-95
2023/05/11 11:19:43;;;;;;;5.35;2.00;;;;;;;;;;4948927;29;20039;-93
2023/05/11 11:25:15;;;;;;;9.35;2.13;;;;;;;;;;5010392;23;20118;-96
2023/05/11 11:27:47;;;;;;;6.72;1.85;;;;;;;;;;4947285;29;20047;-91
2023/05/11 11:30:14;;;;;;;;;;;;;;;;;;4954572;29;20019;-92
2023/05/11 11:32:49;;;;;;;3.78;1.60;;;;;;;;;;4961644;28;19957;-96
2023/05/11 11:35:34;;;;;;;6.82;1.80;;;;;;;;;;4960913;28;20031;-96
2023/05/11 13:21:49;;;;;;;3.35;1.83;;;;;;;;;;4899772;29;20057;-96
2023/05/11 13:30:09;;;;;;;3.03;1.70;;;;;;;;;;5556676;23;20055;-96
2023/05/11 13:32:42;;;;;;;4.18;1.92;;;;;;;;;;4944351;29;20039;-96
2023/05/11 13:35:12;;;;;;;5.03;2.05;;;;;;;;;;4943014;29;20058;-96
2023/05/11 13:37:38;;;;;;;4.57;1.75;;;;;;;;;;4940446;29;20032;-96
2023/05/11 13:40:09;;;;;;;2.90;1.85;;;;;;;;;;4946797;29;20035;-96
2023/05/11 14:46:39;;;;;;;4.68;2.28;;;;;;;;;;4902081;29;20037;-93
2023/05/11 15:25:57;;;;;;;3.97;1.52;;;;;;;;;;5108575;23;20054;-91
2023/05/11 15:28:23;;;;;;;3.83;1.70;;;;;;;;;;4960871;28;20027;-91
2023/05/11 15:30:49;;;;;;;3.92;1.60;;;;;;;;;;4961124;28;20475;-95
2023/05/11 15:33:25;;;;;;;4.20;2.30;;;;;;;;;;4951255;29;20051;-91
2023/05/11 15:35:51;;;;;;;5.80;1.95;;;;;;;;;;4928684;29;20427;-92
2023/05/11 15:38:18;;;;;;;3.97;1.80;;;;;;;;;;4940012;29;20035;-90
2023/05/11 15:40:44;;;;;;;3.83;1.67;;;;;;;;;;4940572;29;20043;-91
2023/05/11 15:43:11;;;;;;;14.77;2.90;;;;;;;;;;4940148;29;20044;-90
2023/05/11 15:45:37;;;;;;;6.15;2.20;;;;;;;;;;4941129;29;20110;-89
2023/05/11 15:48:06;;;;;;;3.22;1.85;;;;;;;;;;4943174;29;20026;-95
2023/05/11 15:50:36;;;;;;;4.65;1.95;;;;;;;;;;4960386;29;20058;-95
2023/05/11 15:53:05;;;;;;;3.83;2.30;;;;;;;;;;4941627;29;20031;-94
2023/05/11 15:58:27;;;;;;;8.65;2.35;;;;;;;;;;4966665;29;20049;-95
2023/05/11 16:01:37;;;;;;;5.75;2.17;;;;;;;;;;4950973;29;20087;-94
2023/05/11 16:04:15;;;;;;;5.78;2.22;;;;;;;;;;4867656;29;20030;-95
2023/05/11 16:07:03;;;;;;;8.15;1.80;;;;;;;;;;4870202;29;20037;-95
2023/05/11 16:09:44;;;;;;;3.72;1.80;;;;;;;;;;4866010;29;20065;-96
2023/05/11 16:12:13;;;;;;;3.85;1.58;;;;;;;;;;4951004;23;20017;-94
